Aviation Digital Data Service (ADDS)

Output produced by TAFs form (1154 UTC 27 May 2017)
found at http://www.aviationweather.gov/adds/tafs/
 
METAR text: ROMY 271100Z 06012KT 9999 SCT020 BKN060 24/19 Q1011
Conditions at: ROMY (MIYAKOJIMA ISLAN, JP) observed 1100 UTC 27 May 2017
Temperature: 24.0°C (75°F)
Dewpoint: 19.0°C (66°F) [RH = 74%]
Pressure (altimeter): 29.85 inches Hg (1011.0 mb)
Winds: from the ENE (60 degrees) at 14 MPH (12 knots; 6.2 m/s)
Visibility: 6 or more miles (10+ km)
Ceiling: 6000 feet AGL
Clouds: scattered clouds at 2000 feet AGL
broken clouds at 6000 feet AGL
Weather: no significant weather observed at this time